sensor_id;sensor_type;location;lat;lon;timestamp;pressure;altitude;pressure_sealevel;temperature;humidity
19112;BME280;9688;51.906;8.376;2023-05-19T00:00:10;101792.53;;;11.33;66.77
19112;BME280;9688;51.906;8.376;2023-05-19T00:03:00;101781.16;;;11.28;66.06
19112;BME280;9688;51.906;8.376;2023-05-19T00:05:47;101788.31;;;11.24;66.94
19112;BME280;9688;51.906;8.376;2023-05-19T00:08:36;101791.97;;;11.19;66.46
19112;BME280;9688;51.906;8.376;2023-05-19T00:11:23;101784.09;;;11.15;67.25
19112;BME280;9688;51.906;8.376;2023-05-19T00:14:10;101782.38;;;11.14;67.61
19112;BME280;9688;51.906;8.376;2023-05-19T00:16:57;101774.50;;;11.11;67.86
19112;BME280;9688;51.906;8.376;2023-05-19T00:19:46;101776.25;;;11.11;67.84
19112;BME280;9688;51.906;8.376;2023-05-19T00:22:32;101777.19;;;11.10;67.78
19112;BME280;9688;51.906;8.376;2023-05-19T00:25:18;101773.72;;;11.06;67.82
19112;BME280;9688;51.906;8.376;2023-05-19T00:28:04;101772.88;;;11.06;67.31
19112;BME280;9688;51.906;8.376;2023-05-19T00:30:50;101774.69;;;11.02;68.31
19112;BME280;9688;51.906;8.376;2023-05-19T00:33:36;101769.47;;;10.99;68.17
19112;BME280;9688;51.906;8.376;2023-05-19T00:36:23;101765.16;;;10.95;68.00
19112;BME280;9688;51.906;8.376;2023-05-19T00:39:09;101767.91;;;10.89;69.44
19112;BME280;9688;51.906;8.376;2023-05-19T00:41:54;101761.91;;;10.82;69.50
19112;BME280;9688;51.906;8.376;2023-05-19T00:44:40;101766.44;;;10.76;68.98
19112;BME280;9688;51.906;8.376;2023-05-19T00:47:26;101768.34;;;10.69;70.18
19112;BME280;9688;51.906;8.376;2023-05-19T00:50:14;101765.81;;;10.64;69.95
19112;BME280;9688;51.906;8.376;2023-05-19T00:53:03;101761.47;;;10.60;70.79
19112;BME280;9688;51.906;8.376;2023-05-19T00:55:49;101768.53;;;10.60;69.70
19112;BME280;9688;51.906;8.376;2023-05-19T00:58:35;101767.69;;;10.58;70.95
19112;BME280;9688;51.906;8.376;2023-05-19T01:01:22;101762.44;;;10.56;70.40
19112;BME280;9688;51.906;8.376;2023-05-19T01:04:09;101761.59;;;10.53;71.12
19112;BME280;9688;51.906;8.376;2023-05-19T01:07:00;101765.16;;;10.53;70.71
19112;BME280;9688;51.906;8.376;2023-05-19T01:09:48;101761.59;;;10.53;71.09
19112;BME280;9688;51.906;8.376;2023-05-19T01:12:35;101764.44;;;10.45;71.24
19112;BME280;9688;51.906;8.376;2023-05-19T01:15:21;101768.09;;;10.36;71.28
19112;BME280;9688;51.906;8.376;2023-05-19T01:18:11;101769.94;;;10.33;71.68
19112;BME280;9688;51.906;8.376;2023-05-19T01:21:16;101763.84;;;10.29;71.84
19112;BME280;9688;51.906;8.376;2023-05-19T01:24:17;101767.38;;;10.26;72.59
19112;BME280;9688;51.906;8.376;2023-05-19T01:27:23;101770.03;;;10.25;72.65
19112;BME280;9688;51.906;8.376;2023-05-19T01:30:25;101771.78;;;10.26;72.52
19112;BME280;9688;51.906;8.376;2023-05-19T01:33:13;101763.84;;;10.27;72.40
19112;BME280;9688;51.906;8.376;2023-05-19T01:36:02;101773.56;;;10.27;71.90
19112;BME280;9688;51.906;8.376;2023-05-19T01:38:50;101765.63;;;10.27;73.10
19112;BME280;9688;51.906;8.376;2023-05-19T01:41:38;101759.44;;;10.26;72.20
19112;BME280;9688;51.906;8.376;2023-05-19T01:44:25;101770.03;;;10.26;72.67
19112;BME280;9688;51.906;8.376;2023-05-19T01:47:14;101766.50;;;10.26;73.14
19112;BME280;9688;51.906;8.376;2023-05-19T01:50:00;101763.00;;;10.25;72.11
19112;BME280;9688;51.906;8.376;2023-05-19T01:52:52;101757.72;;;10.24;72.39
19112;BME280;9688;51.906;8.376;2023-05-19T01:55:42;101755.09;;;10.22;73.36
19112;BME280;9688;51.906;8.376;2023-05-19T01:58:35;101753.38;;;10.21;72.99
19112;BME280;9688;51.906;8.376;2023-05-19T02:01:29;101758.66;;;10.21;73.04
19112;BME280;9688;51.906;8.376;2023-05-19T02:04:26;101755.09;;;10.24;72.22
19112;BME280;9688;51.906;8.376;2023-05-19T02:07:19;101754.19;;;10.25;72.03
19112;BME280;9688;51.906;8.376;2023-05-19T02:10:10;101758.59;;;10.24;73.13
19112;BME280;9688;51.906;8.376;2023-05-19T02:13:00;101755.06;;;10.25;72.46
19112;BME280;9688;51.906;8.376;2023-05-19T02:15:50;101762.16;;;10.23;72.60
19112;BME280;9688;51.906;8.376;2023-05-19T02:18:38;101754.25;;;10.22;72.69
19112;BME280;9688;51.906;8.376;2023-05-19T02:21:30;101750.78;;;10.20;72.46
19112;BME280;9688;51.906;8.376;2023-05-19T02:24:17;101752.59;;;10.16;72.65
19112;BME280;9688;51.906;8.376;2023-05-19T02:27:04;101749.06;;;10.16;72.38
19112;BME280;9688;51.906;8.376;2023-05-19T02:29:50;101749.94;;;10.16;73.08
19112;BME280;9688;51.906;8.376;2023-05-19T02:32:36;101752.59;;;10.16;72.91
19112;BME280;9688;51.906;8.376;2023-05-19T02:35:22;101746.44;;;10.16;72.90
19112;BME280;9688;51.906;8.376;2023-05-19T02:38:10;101751.72;;;10.16;72.28
19112;BME280;9688;51.906;8.376;2023-05-19T02:40:56;101751.75;;;10.14;73.42
19112;BME280;9688;51.906;8.376;2023-05-19T02:43:41;101752.69;;;10.12;72.61
19112;BME280;9688;51.906;8.376;2023-05-19T02:46:28;101756.19;;;10.12;72.52
19112;BME280;9688;51.906;8.376;2023-05-19T02:49:14;101745.63;;;10.11;73.66
19112;BME280;9688;51.906;8.376;2023-05-19T02:52:00;101749.19;;;10.10;73.47
19112;BME280;9688;51.906;8.376;2023-05-19T02:54:47;101744.78;;;10.09;73.23
19112;BME280;9688;51.906;8.376;2023-05-19T02:57:33;101745.69;;;10.08;72.76
19112;BME280;9688;51.906;8.376;2023-05-19T03:00:20;101743.97;;;10.07;72.76
19112;BME280;9688;51.906;8.376;2023-05-19T03:03:06;101751.03;;;10.04;73.21
19112;BME280;9688;51.906;8.376;2023-05-19T03:05:53;101750.19;;;10.02;73.35
19112;BME280;9688;51.906;8.376;2023-05-19T03:08:39;101749.31;;;10.02;73.25
19112;BME280;9688;51.906;8.376;2023-05-19T03:11:27;101748.47;;;10.00;73.14
19112;BME280;9688;51.906;8.376;2023-05-19T03:14:13;101749.38;;;9.99;74.21
19112;BME280;9688;51.906;8.376;2023-05-19T03:16:59;101744.97;;;9.99;73.91
19112;BME280;9688;51.906;8.376;2023-05-19T03:19:45;101746.75;;;9.99;73.43
19112;BME280;9688;51.906;8.376;2023-05-19T03:22:30;101744.16;;;9.96;73.12
19112;BME280;9688;51.906;8.376;2023-05-19T03:25:16;101744.13;;;9.97;74.49
19112;BME280;9688;51.906;8.376;2023-05-19T03:28:04;101744.16;;;9.94;74.07
19112;BME280;9688;51.906;8.376;2023-05-19T03:30:50;101743.38;;;9.89;73.91
19112;BME280;9688;51.906;8.376;2023-05-19T03:33:35;101746.91;;;9.90;74.02
19112;BME280;9688;51.906;8.376;2023-05-19T03:36:21;101739.84;;;9.90;74.11
19112;BME280;9688;51.906;8.376;2023-05-19T03:39:07;101747.72;;;9.92;73.96
19112;BME280;9688;51.906;8.376;2023-05-19T03:41:53;101738.06;;;9.92;74.66
19112;BME280;9688;51.906;8.376;2023-05-19T03:44:40;101740.72;;;9.92;74.29
19112;BME280;9688;51.906;8.376;2023-05-19T03:47:27;101736.28;;;9.93;74.42
19112;BME280;9688;51.906;8.376;2023-05-19T03:50:15;101740.72;;;9.92;74.61
19112;BME280;9688;51.906;8.376;2023-05-19T03:53:00;101743.31;;;9.94;74.20
19112;BME280;9688;51.906;8.376;2023-05-19T03:55:46;101744.16;;;9.94;75.25
19112;BME280;9688;51.906;8.376;2023-05-19T03:58:34;101737.13;;;9.95;74.53
19112;BME280;9688;51.906;8.376;2023-05-19T04:01:25;101753.81;;;9.98;74.18
19112;BME280;9688;51.906;8.376;2023-05-19T04:04:11;101757.31;;;9.99;74.83
19112;BME280;9688;51.906;8.376;2023-05-19T04:06:57;101758.19;;;9.99;75.66
19112;BME280;9688;51.906;8.376;2023-05-19T04:09:43;101754.66;;;10.00;75.31
19112;BME280;9688;51.906;8.376;2023-05-19T04:12:30;101764.31;;;10.00;75.14
19112;BME280;9688;51.906;8.376;2023-05-19T04:15:16;101760.84;;;9.98;75.81
19112;BME280;9688;51.906;8.376;2023-05-19T04:18:04;101759.16;;;9.95;75.84
19112;BME280;9688;51.906;8.376;2023-05-19T04:20:49;101768.81;;;9.95;76.32
19112;BME280;9688;51.906;8.376;2023-05-19T04:23:35;101768.78;;;9.96;76.56
19112;BME280;9688;51.906;8.376;2023-05-19T04:26:21;101770.50;;;9.99;76.65
19112;BME280;9688;51.906;8.376;2023-05-19T04:29:08;101765.16;;;10.03;77.37
19112;BME280;9688;51.906;8.376;2023-05-19T04:31:54;101763.94;;;10.23;76.63
19112;BME280;9688;51.906;8.376;2023-05-19T04:34:41;101760.84;;;11.30;73.66
19112;BME280;9688;51.906;8.376;2023-05-19T04:37:28;101755.88;;;12.25;71.21
19112;BME280;9688;51.906;8.376;2023-05-19T04:40:14;101762.59;;;12.37;71.23
19112;BME280;9688;51.906;8.376;2023-05-19T04:43:00;101759.72;;;12.76;69.82
19112;BME280;9688;51.906;8.376;2023-05-19T04:45:46;101762.00;;;12.88;69.87
19112;BME280;9688;51.906;8.376;2023-05-19T04:48:33;101762.94;;;12.87;70.23
19112;BME280;9688;51.906;8.376;2023-05-19T04:51:22;101758.28;;;13.23;68.67
19112;BME280;9688;51.906;8.376;2023-05-19T04:54:11;101762.75;;;13.51;67.97
19112;BME280;9688;51.906;8.376;2023-05-19T04:56:56;101764.84;;;13.69;67.53
19112;BME280;9688;51.906;8.376;2023-05-19T04:59:43;101760.69;;;13.87;66.93
19112;BME280;9688;51.906;8.376;2023-05-19T05:02:30;101753.97;;;14.27;65.57
19112;BME280;9688;51.906;8.376;2023-05-19T05:05:17;101756.44;;;14.82;63.68
19112;BME280;9688;51.906;8.376;2023-05-19T05:08:05;101755.56;;;14.81;63.67
19112;BME280;9688;51.906;8.376;2023-05-19T05:10:51;101758.41;;;14.51;64.69
19112;BME280;9688;51.906;8.376;2023-05-19T05:13:38;101747.28;;;14.15;65.63
19112;BME280;9688;51.906;8.376;2023-05-19T05:16:24;101748.13;;;13.91;66.12
19112;BME280;9688;51.906;8.376;2023-05-19T05:19:11;101739.75;;;14.03;65.48
19112;BME280;9688;51.906;8.376;2023-05-19T05:21:57;101748.16;;;14.16;64.99
19112;BME280;9688;51.906;8.376;2023-05-19T05:24:45;101747.63;;;14.31;64.74
19112;BME280;9688;51.906;8.376;2023-05-19T05:27:32;101750.03;;;14.14;65.34
19112;BME280;9688;51.906;8.376;2023-05-19T05:30:18;101753.94;;;14.02;65.31
19112;BME280;9688;51.906;8.376;2023-05-19T05:33:04;101754.19;;;14.21;64.64
19112;BME280;9688;51.906;8.376;2023-05-19T05:35:50;101753.47;;;14.66;63.67
19112;BME280;9688;51.906;8.376;2023-05-19T05:38:36;101749.38;;;14.81;63.20
19112;BME280;9688;51.906;8.376;2023-05-19T05:41:24;101744.34;;;14.73;63.17
19112;BME280;9688;51.906;8.376;2023-05-19T05:44:11;101747.34;;;14.64;63.03
19112;BME280;9688;51.906;8.376;2023-05-19T05:46:57;101747.00;;;14.73;62.96
19112;BME280;9688;51.906;8.376;2023-05-19T05:49:43;101750.84;;;14.88;62.63
19112;BME280;9688;51.906;8.376;2023-05-19T05:52:32;101758.69;;;14.92;62.34
19112;BME280;9688;51.906;8.376;2023-05-19T05:55:18;101749.31;;;14.82;62.91
19112;BME280;9688;51.906;8.376;2023-05-19T05:58:06;101750.47;;;14.75;63.02
19112;BME280;9688;51.906;8.376;2023-05-19T06:00:54;101750.84;;;14.88;62.74
19112;BME280;9688;51.906;8.376;2023-05-19T06:03:42;101747.75;;;15.00;62.22
19112;BME280;9688;51.906;8.376;2023-05-19T06:06:28;101742.91;;;15.10;62.81
19112;BME280;9688;51.906;8.376;2023-05-19T06:09:15;101744.72;;;15.31;61.42
19112;BME280;9688;51.906;8.376;2023-05-19T06:12:01;101741.25;;;15.29;61.37
19112;BME280;9688;51.906;8.376;2023-05-19T06:14:49;101737.03;;;15.24;61.12
19112;BME280;9688;51.906;8.376;2023-05-19T06:17:35;101745.31;;;15.60;59.84
19112;BME280;9688;51.906;8.376;2023-05-19T06:20:21;101746.56;;;16.16;58.06
19112;BME280;9688;51.906;8.376;2023-05-19T06:23:07;101738.44;;;16.58;57.57
19112;BME280;9688;51.906;8.376;2023-05-19T06:25:55;101739.88;;;16.86;56.10
19112;BME280;9688;51.906;8.376;2023-05-19T06:28:41;101741.59;;;17.25;54.83
19112;BME280;9688;51.906;8.376;2023-05-19T06:31:29;101739.97;;;17.21;55.01
19112;BME280;9688;51.906;8.376;2023-05-19T06:34:16;101741.03;;;16.99;54.76
19112;BME280;9688;51.906;8.376;2023-05-19T06:37:02;101735.06;;;16.73;55.44
19112;BME280;9688;51.906;8.376;2023-05-19T06:39:48;101729.44;;;16.61;55.26
19112;BME280;9688;51.906;8.376;2023-05-19T06:42:36;101729.50;;;16.59;55.21
19112;BME280;9688;51.906;8.376;2023-05-19T06:45:23;101728.81;;;16.54;55.25
19112;BME280;9688;51.906;8.376;2023-05-19T06:48:11;101715.84;;;16.46;55.18
19112;BME280;9688;51.906;8.376;2023-05-19T06:50:57;101732.00;;;16.43;54.76
19112;BME280;9688;51.906;8.376;2023-05-19T06:53:43;101725.81;;;16.62;53.80
19112;BME280;9688;51.906;8.376;2023-05-19T06:56:30;101725.66;;;16.85;54.30
19112;BME280;9688;51.906;8.376;2023-05-19T06:59:15;101724.34;;;17.13;53.23
19112;BME280;9688;51.906;8.376;2023-05-19T07:02:05;101725.09;;;17.34;53.03
19112;BME280;9688;51.906;8.376;2023-05-19T07:04:53;101721.09;;;17.79;51.79
19112;BME280;9688;51.906;8.376;2023-05-19T07:07:40;101718.06;;;18.20;50.78
19112;BME280;9688;51.906;8.376;2023-05-19T07:10:27;101709.97;;;18.21;49.93
19112;BME280;9688;51.906;8.376;2023-05-19T07:13:14;101713.22;;;18.11;49.51
19112;BME280;9688;51.906;8.376;2023-05-19T07:16:00;101713.72;;;18.01;50.11
19112;BME280;9688;51.906;8.376;2023-05-19T07:18:46;101711.44;;;17.94;50.16
19112;BME280;9688;51.906;8.376;2023-05-19T07:21:34;101712.44;;;17.91;49.81
19112;BME280;9688;51.906;8.376;2023-05-19T07:24:22;101707.72;;;17.96;49.17
19112;BME280;9688;51.906;8.376;2023-05-19T07:27:12;101707.94;;;18.09;49.29
19112;BME280;9688;51.906;8.376;2023-05-19T07:29:59;101701.31;;;18.16;49.11
19112;BME280;9688;51.906;8.376;2023-05-19T07:32:45;101708.22;;;18.20;48.30
19112;BME280;9688;51.906;8.376;2023-05-19T07:35:31;101704.97;;;18.15;47.78
19112;BME280;9688;51.906;8.376;2023-05-19T07:38:18;101699.84;;;18.11;47.55
19112;BME280;9688;51.906;8.376;2023-05-19T07:41:05;101699.44;;;18.18;47.83
19112;BME280;9688;51.906;8.376;2023-05-19T07:43:51;101701.84;;;18.23;47.14
19112;BME280;9688;51.906;8.376;2023-05-19T07:46:39;101694.59;;;18.25;46.95
19112;BME280;9688;51.906;8.376;2023-05-19T07:49:26;101697.69;;;18.17;46.53
19112;BME280;9688;51.906;8.376;2023-05-19T07:52:14;101704.84;;;18.17;46.36
19112;BME280;9688;51.906;8.376;2023-05-19T07:55:03;101696.38;;;18.09;46.63
19112;BME280;9688;51.906;8.376;2023-05-19T07:57:49;101691.19;;;18.05;46.35
19112;BME280;9688;51.906;8.376;2023-05-19T08:00:37;101685.81;;;18.05;46.26
19112;BME280;9688;51.906;8.376;2023-05-19T08:03:28;101683.94;;;18.08;45.95
19112;BME280;9688;51.906;8.376;2023-05-19T08:06:15;101695.50;;;18.08;45.88
19112;BME280;9688;51.906;8.376;2023-05-19T08:09:02;101686.22;;;18.15;45.72
19112;BME280;9688;51.906;8.376;2023-05-19T08:11:51;101692.16;;;18.20;45.21
19112;BME280;9688;51.906;8.376;2023-05-19T08:14:36;101696.88;;;18.33;44.71
19112;BME280;9688;51.906;8.376;2023-05-19T08:17:23;101692.84;;;18.41;44.10
19112;BME280;9688;51.906;8.376;2023-05-19T08:20:10;101687.31;;;18.44;44.09
19112;BME280;9688;51.906;8.376;2023-05-19T08:22:57;101688.78;;;18.50;43.60
19112;BME280;9688;51.906;8.376;2023-05-19T08:25:43;101687.75;;;18.53;43.61
19112;BME280;9688;51.906;8.376;2023-05-19T08:28:31;101685.59;;;18.43;43.42
19112;BME280;9688;51.906;8.376;2023-05-19T08:31:18;101691.56;;;18.48;43.01
19112;BME280;9688;51.906;8.376;2023-05-19T08:34:04;101685.50;;;18.45;43.26
19112;BME280;9688;51.906;8.376;2023-05-19T08:36:49;101681.00;;;18.45;42.83
19112;BME280;9688;51.906;8.376;2023-05-19T08:39:36;101679.03;;;18.65;42.02
19112;BME280;9688;51.906;8.376;2023-05-19T08:42:23;101669.59;;;19.07;41.41
19112;BME280;9688;51.906;8.376;2023-05-19T08:45:12;101661.94;;;19.61;40.32
19112;BME280;9688;51.906;8.376;2023-05-19T08:48:03;101662.41;;;19.98;39.64
19112;BME280;9688;51.906;8.376;2023-05-19T08:50:57;101657.66;;;20.32;38.36
19112;BME280;9688;51.906;8.376;2023-05-19T08:53:47;101653.06;;;20.62;38.08
19112;BME280;9688;51.906;8.376;2023-05-19T08:56:35;101641.25;;;20.92;37.94
19112;BME280;9688;51.906;8.376;2023-05-19T08:59:22;101643.31;;;21.15;37.92
19112;BME280;9688;51.906;8.376;2023-05-19T09:02:11;101644.44;;;21.26;37.51
19112;BME280;9688;51.906;8.376;2023-05-19T09:05:00;101653.09;;;21.16;37.43
19112;BME280;9688;51.906;8.376;2023-05-19T09:07:48;101645.53;;;21.09;37.20
19112;BME280;9688;51.906;8.376;2023-05-19T09:10:34;101645.06;;;21.02;37.25
19112;BME280;9688;51.906;8.376;2023-05-19T09:13:20;101646.47;;;20.95;37.51
19112;BME280;9688;51.906;8.376;2023-05-19T09:16:10;101637.91;;;20.88;37.68
19112;BME280;9688;51.906;8.376;2023-05-19T09:18:57;101642.94;;;20.80;37.37
19112;BME280;9688;51.906;8.376;2023-05-19T09:21:44;101629.38;;;20.55;37.85
19112;BME280;9688;51.906;8.376;2023-05-19T09:24:30;101634.41;;;20.45;37.95
19112;BME280;9688;51.906;8.376;2023-05-19T09:27:21;101629.25;;;20.27;38.13
19112;BME280;9688;51.906;8.376;2023-05-19T09:30:10;101635.59;;;20.12;38.44
19112;BME280;9688;51.906;8.376;2023-05-19T09:33:00;101631.66;;;20.03;38.78
19112;BME280;9688;51.906;8.376;2023-05-19T09:35:52;101625.53;;;20.01;38.65
19112;BME280;9688;51.906;8.376;2023-05-19T09:38:39;101619.28;;;19.87;39.10
19112;BME280;9688;51.906;8.376;2023-05-19T09:41:25;101621.41;;;19.96;39.12
19112;BME280;9688;51.906;8.376;2023-05-19T09:44:20;101612.19;;;20.14;38.61
19112;BME280;9688;51.906;8.376;2023-05-19T09:47:09;101617.09;;;19.93;38.87
19112;BME280;9688;51.906;8.376;2023-05-19T09:49:56;101621.97;;;19.87;39.15
19112;BME280;9688;51.906;8.376;2023-05-19T09:52:45;101606.63;;;19.89;38.89
19112;BME280;9688;51.906;8.376;2023-05-19T09:55:33;101611.41;;;19.98;38.68
19112;BME280;9688;51.906;8.376;2023-05-19T09:58:19;101616.22;;;20.21;38.52
19112;BME280;9688;51.906;8.376;2023-05-19T10:01:07;101618.13;;;20.34;37.97
19112;BME280;9688;51.906;8.376;2023-05-19T10:03:53;101611.28;;;20.42;37.99
19112;BME280;9688;51.906;8.376;2023-05-19T10:06:40;101609.50;;;20.57;37.63
19112;BME280;9688;51.906;8.376;2023-05-19T10:09:28;101612.28;;;20.56;37.52
19112;BME280;9688;51.906;8.376;2023-05-19T10:12:14;101605.28;;;20.53;37.82
19112;BME280;9688;51.906;8.376;2023-05-19T10:15:02;101602.38;;;20.70;37.74
19112;BME280;9688;51.906;8.376;2023-05-19T10:17:49;101600.75;;;20.68;37.67
19112;BME280;9688;51.906;8.376;2023-05-19T10:20:36;101598.34;;;20.63;37.67
19112;BME280;9688;51.906;8.376;2023-05-19T10:23:23;101587.88;;;20.73;37.56
19112;BME280;9688;51.906;8.376;2023-05-19T10:26:12;101589.09;;;20.82;37.41
19112;BME280;9688;51.906;8.376;2023-05-19T10:28:58;101587.47;;;20.79;37.39
19112;BME280;9688;51.906;8.376;2023-05-19T10:31:45;101583.59;;;20.83;37.04
19112;BME280;9688;51.906;8.376;2023-05-19T10:34:55;101582.03;;;20.66;36.87
19112;BME280;9688;51.906;8.376;2023-05-19T10:38:15;101578.16;;;20.29;37.08
19112;BME280;9688;51.906;8.376;2023-05-19T10:41:23;101586.38;;;20.40;37.08
19112;BME280;9688;51.906;8.376;2023-05-19T10:44:16;101583.19;;;20.62;36.63
19112;BME280;9688;51.906;8.376;2023-05-19T10:47:05;101578.53;;;20.79;36.43
19112;BME280;9688;51.906;8.376;2023-05-19T10:49:56;101577.88;;;21.02;35.87
19112;BME280;9688;51.906;8.376;2023-05-19T10:52:55;101567.03;;;21.16;35.50
19112;BME280;9688;51.906;8.376;2023-05-19T10:55:44;101577.69;;;21.18;34.92
19112;BME280;9688;51.906;8.376;2023-05-19T10:58:48;101579.25;;;20.95;34.94
19112;BME280;9688;51.906;8.376;2023-05-19T11:01:35;101594.25;;;20.85;35.13
19112;BME280;9688;51.906;8.376;2023-05-19T11:04:38;101584.31;;;20.72;35.14
19112;BME280;9688;51.906;8.376;2023-05-19T11:07:24;101588.31;;;20.80;35.05
19112;BME280;9688;51.906;8.376;2023-05-19T11:10:13;101578.28;;;20.96;35.04
19112;BME280;9688;51.906;8.376;2023-05-19T11:13:07;101573.38;;;21.15;34.48
19112;BME280;9688;51.906;8.376;2023-05-19T11:16:08;101568.34;;;21.36;34.17
19112;BME280;9688;51.906;8.376;2023-05-19T11:18:54;101565.63;;;21.51;34.34
19112;BME280;9688;51.906;8.376;2023-05-19T11:21:43;101567.44;;;21.50;34.08
19112;BME280;9688;51.906;8.376;2023-05-19T11:24:33;101561.03;;;21.26;34.48
19112;BME280;9688;51.906;8.376;2023-05-19T11:27:21;101560.16;;;21.25;34.53
19112;BME280;9688;51.906;8.376;2023-05-19T11:30:09;101553.50;;;21.31;34.35
19112;BME280;9688;51.906;8.376;2023-05-19T11:33:00;101553.72;;;21.28;34.56
19112;BME280;9688;51.906;8.376;2023-05-19T11:35:47;101565.28;;;21.55;34.28
19112;BME280;9688;51.906;8.376;2023-05-19T11:38:35;101550.66;;;21.85;33.79
19112;BME280;9688;51.906;8.376;2023-05-19T11:41:21;101550.34;;;21.77;33.67
19112;BME280;9688;51.906;8.376;2023-05-19T11:44:09;101552.25;;;21.49;34.13
19112;BME280;9688;51.906;8.376;2023-05-19T11:46:55;101550.97;;;21.55;34.52
19112;BME280;9688;51.906;8.376;2023-05-19T11:49:44;101539.78;;;21.74;34.42
19112;BME280;9688;51.906;8.376;2023-05-19T11:52:34;101563.88;;;21.88;33.81
19112;BME280;9688;51.906;8.376;2023-05-19T11:55:23;101546.97;;;21.86;33.77
19112;BME280;9688;51.906;8.376;2023-05-19T11:58:10;101545.44;;;21.95;33.41
19112;BME280;9688;51.906;8.376;2023-05-19T12:01:02;101545.59;;;21.93;33.20
19112;BME280;9688;51.906;8.376;2023-05-19T12:03:48;101544.94;;;21.90;33.05
19112;BME280;9688;51.906;8.376;2023-05-19T12:06:36;101540.19;;;21.80;33.10
19112;BME280;9688;51.906;8.376;2023-05-19T12:09:23;101551.72;;;21.82;32.97
19112;BME280;9688;51.906;8.376;2023-05-19T12:12:09;101538.59;;;21.78;32.51
19112;BME280;9688;51.906;8.376;2023-05-19T12:14:57;101543.66;;;21.82;32.54
19112;BME280;9688;51.906;8.376;2023-05-19T12:17:54;101532.97;;;21.94;32.54
19112;BME280;9688;51.906;8.376;2023-05-19T12:20:40;101540.91;;;22.08;32.19
19112;BME280;9688;51.906;8.376;2023-05-19T12:23:28;101543.88;;;21.92;31.86
19112;BME280;9688;51.906;8.376;2023-05-19T12:26:16;101533.00;;;21.55;32.34
19112;BME280;9688;51.906;8.376;2023-05-19T12:29:04;101539.34;;;21.54;32.08
19112;BME280;9688;51.906;8.376;2023-05-19T12:31:51;101531.84;;;21.59;31.88
19112;BME280;9688;51.906;8.376;2023-05-19T12:34:39;101534.09;;;21.66;31.81
19112;BME280;9688;51.906;8.376;2023-05-19T12:37:28;101536.34;;;21.59;32.04
19112;BME280;9688;51.906;8.376;2023-05-19T12:40:17;101530.75;;;21.49;32.59
19112;BME280;9688;51.906;8.376;2023-05-19T12:43:03;101529.13;;;21.59;32.68
19112;BME280;9688;51.906;8.376;2023-05-19T12:45:50;101532.56;;;21.61;32.37
19112;BME280;9688;51.906;8.376;2023-05-19T12:48:39;101522.03;;;21.46;32.61
19112;BME280;9688;51.906;8.376;2023-05-19T12:51:26;101511.69;;;21.52;32.57
19112;BME280;9688;51.906;8.376;2023-05-19T12:54:12;101521.69;;;21.63;31.95
19112;BME280;9688;51.906;8.376;2023-05-19T12:57:01;101502.19;;;21.72;32.17
19112;BME280;9688;51.906;8.376;2023-05-19T12:59:50;101508.22;;;21.89;31.86
19112;BME280;9688;51.906;8.376;2023-05-19T13:02:54;101518.25;;;21.87;32.03
19112;BME280;9688;51.906;8.376;2023-05-19T13:05:42;101508.25;;;21.63;32.37
19112;BME280;9688;51.906;8.376;2023-05-19T13:08:31;101501.78;;;21.53;32.73
19112;BME280;9688;51.906;8.376;2023-05-19T13:11:18;101498.88;;;21.69;32.98
19112;BME280;9688;51.906;8.376;2023-05-19T13:14:07;101506.53;;;21.62;33.08
19112;BME280;9688;51.906;8.376;2023-05-19T13:16:52;101501.28;;;21.48;33.24
19112;BME280;9688;51.906;8.376;2023-05-19T13:19:38;101497.69;;;21.47;33.37
19112;BME280;9688;51.906;8.376;2023-05-19T13:22:25;101499.97;;;21.53;33.00
19112;BME280;9688;51.906;8.376;2023-05-19T13:25:12;101496.31;;;21.67;32.79
19112;BME280;9688;51.906;8.376;2023-05-19T13:27:58;101499.59;;;21.83;32.83
19112;BME280;9688;51.906;8.376;2023-05-19T13:30:51;101498.50;;;21.86;32.86
19112;BME280;9688;51.906;8.376;2023-05-19T13:33:37;101504.78;;;21.87;32.78
19112;BME280;9688;51.906;8.376;2023-05-19T13:36:24;101501.88;;;21.90;32.68
19112;BME280;9688;51.906;8.376;2023-05-19T13:39:11;101496.72;;;21.87;32.49
19112;BME280;9688;51.906;8.376;2023-05-19T13:41:58;101489.34;;;21.89;33.12
19112;BME280;9688;51.906;8.376;2023-05-19T13:44:45;101492.13;;;22.13;32.65
19112;BME280;9688;51.906;8.376;2023-05-19T13:47:33;101491.97;;;22.27;32.72
19112;BME280;9688;51.906;8.376;2023-05-19T13:50:19;101482.53;;;22.21;32.80
19112;BME280;9688;51.906;8.376;2023-05-19T13:53:07;101493.94;;;22.12;32.99
19112;BME280;9688;51.906;8.376;2023-05-19T13:55:56;101490.88;;;21.93;33.81
19112;BME280;9688;51.906;8.376;2023-05-19T13:58:45;101479.66;;;21.99;33.88
19112;BME280;9688;51.906;8.376;2023-05-19T14:01:34;101492.13;;;22.13;33.51
19112;BME280;9688;51.906;8.376;2023-05-19T14:04:24;101482.41;;;22.10;33.48
19112;BME280;9688;51.906;8.376;2023-05-19T14:07:11;101484.72;;;22.03;33.65
19112;BME280;9688;51.906;8.376;2023-05-19T14:09:58;101481.63;;;21.84;34.05
19112;BME280;9688;51.906;8.376;2023-05-19T14:12:44;101471.00;;;21.57;34.03
19112;BME280;9688;51.906;8.376;2023-05-19T14:15:31;101465.94;;;21.52;33.85
19112;BME280;9688;51.906;8.376;2023-05-19T14:18:22;101467.03;;;21.63;33.81
19112;BME280;9688;51.906;8.376;2023-05-19T14:21:11;101468.81;;;21.75;33.17
19112;BME280;9688;51.906;8.376;2023-05-19T14:23:57;101466.75;;;21.91;32.98
19112;BME280;9688;51.906;8.376;2023-05-19T14:26:43;101467.88;;;22.13;32.91
19112;BME280;9688;51.906;8.376;2023-05-19T14:29:30;101456.50;;;22.33;32.90
19112;BME280;9688;51.906;8.376;2023-05-19T14:32:15;101458.00;;;22.37;33.22
19112;BME280;9688;51.906;8.376;2023-05-19T14:35:02;101472.34;;;22.38;33.34
19112;BME280;9688;51.906;8.376;2023-05-19T14:37:50;101460.22;;;22.43;33.06
19112;BME280;9688;51.906;8.376;2023-05-19T14:40:36;101476.44;;;22.31;33.19
19112;BME280;9688;51.906;8.376;2023-05-19T14:43:25;101473.50;;;22.10;33.63
19112;BME280;9688;51.906;8.376;2023-05-19T14:46:11;101470.81;;;21.97;33.42
19112;BME280;9688;51.906;8.376;2023-05-19T14:49:00;101459.22;;;21.83;33.59